sensor_id;sensor_type;location;lat;lon;timestamp;P1;durP1;ratioP1;P2;durP2;ratioP2
12155;SDS011;6141;49.092;8.516;2022-10-14T01:46:03;10.90;;;9.73;;
12155;SDS011;6141;49.092;8.516;2022-10-14T01:51:06;12.87;;;9.37;;
12155;SDS011;6141;49.092;8.516;2022-10-14T02:00:28;11.67;;;9.00;;
12155;SDS011;6141;49.092;8.516;2022-10-14T05:32:04;7.70;;;4.23;;
12155;SDS011;6141;49.092;8.516;2022-10-14T05:36:37;9.70;;;3.83;;
12155;SDS011;6141;49.092;8.516;2022-10-14T08:05:37;6.37;;;4.40;;
12155;SDS011;6141;49.092;8.516;2022-10-14T08:10:34;9.57;;;4.87;;
12155;SDS011;6141;49.092;8.516;2022-10-14T09:31:56;6.37;;;4.17;;
12155;SDS011;6141;49.092;8.516;2022-10-14T09:35:27;6.17;;;4.23;;
12155;SDS011;6141;49.092;8.516;2022-10-14T09:48:30;8.30;;;4.10;;
12155;SDS011;6141;49.092;8.516;2022-10-14T10:16:31;6.43;;;3.20;;
12155;SDS011;6141;49.092;8.516;2022-10-14T10:26:28;4.63;;;3.00;;
12155;SDS011;6141;49.092;8.516;2022-10-14T10:30:56;4.57;;;2.97;;
12155;SDS011;6141;49.092;8.516;2022-10-14T10:35:48;5.10;;;2.77;;
12155;SDS011;6141;49.092;8.516;2022-10-14T11:32:57;3.73;;;2.70;;
12155;SDS011;6141;49.092;8.516;2022-10-14T13:26:58;5.87;;;2.50;;
12155;SDS011;6141;49.092;8.516;2022-10-14T13:46:49;2.65;;;2.20;;
12155;SDS011;6141;49.092;8.516;2022-10-14T14:41:28;2.33;;;2.10;;
12155;SDS011;6141;49.092;8.516;2022-10-14T14:50:36;5.17;;;2.57;;
12155;SDS011;6141;49.092;8.516;2022-10-14T14:54:22;4.10;;;2.77;;
12155;SDS011;6141;49.092;8.516;2022-10-14T15:03:54;4.17;;;2.70;;
12155;SDS011;6141;49.092;8.516;2022-10-14T16:07:00;6.17;;;3.37;;
12155;SDS011;6141;49.092;8.516;2022-10-14T16:09:31;5.07;;;3.00;;
12155;SDS011;6141;49.092;8.516;2022-10-14T16:12:21;6.53;;;2.70;;
12155;SDS011;6141;49.092;8.516;2022-10-14T16:16:57;3.47;;;2.63;;
12155;SDS011;6141;49.092;8.516;2022-10-14T16:19:32;3.90;;;2.73;;
12155;SDS011;6141;49.092;8.516;2022-10-14T16:22:31;3.20;;;2.30;;
12155;SDS011;6141;49.092;8.516;2022-10-14T16:25:42;2.33;;;1.90;;
12155;SDS011;6141;49.092;8.516;2022-10-14T16:28:51;2.73;;;1.83;;
12155;SDS011;6141;49.092;8.516;2022-10-14T16:32:12;2.57;;;1.83;;
12155;SDS011;6141;49.092;8.516;2022-10-14T16:34:46;3.07;;;1.90;;
12155;SDS011;6141;49.092;8.516;2022-10-14T16:37:19;5.83;;;2.20;;
12155;SDS011;6141;49.092;8.516;2022-10-14T16:40:09;2.23;;;2.10;;
12155;SDS011;6141;49.092;8.516;2022-10-14T16:42:50;3.60;;;1.80;;
12155;SDS011;6141;49.092;8.516;2022-10-14T16:45:45;1.80;;;1.60;;
12155;SDS011;6141;49.092;8.516;2022-10-14T16:48:14;2.60;;;1.70;;
12155;SDS011;6141;49.092;8.516;2022-10-14T16:50:47;1.47;;;1.37;;
12155;SDS011;6141;49.092;8.516;2022-10-14T16:53:21;3.30;;;1.53;;
12155;SDS011;6141;49.092;8.516;2022-10-14T16:56:32;3.77;;;1.90;;
12155;SDS011;6141;49.092;8.516;2022-10-14T16:59:27;2.17;;;1.47;;
12155;SDS011;6141;49.092;8.516;2022-10-14T17:02:11;2.07;;;1.60;;
12155;SDS011;6141;49.092;8.516;2022-10-14T17:04:42;3.13;;;1.50;;
12155;SDS011;6141;49.092;8.516;2022-10-14T17:07:18;2.97;;;1.77;;
12155;SDS011;6141;49.092;8.516;2022-10-14T17:10:24;2.57;;;1.57;;
12155;SDS011;6141;49.092;8.516;2022-10-14T17:16:43;3.57;;;1.77;;
12155;SDS011;6141;49.092;8.516;2022-10-14T17:19:18;3.70;;;1.60;;
12155;SDS011;6141;49.092;8.516;2022-10-14T17:22:07;4.53;;;1.60;;
12155;SDS011;6141;49.092;8.516;2022-10-14T17:26:27;3.00;;;1.53;;
12155;SDS011;6141;49.092;8.516;2022-10-14T17:28:59;3.67;;;1.80;;
12155;SDS011;6141;49.092;8.516;2022-10-14T17:34:34;5.23;;;1.90;;
12155;SDS011;6141;49.092;8.516;2022-10-14T17:37:40;3.80;;;1.73;;
12155;SDS011;6141;49.092;8.516;2022-10-14T17:41:08;3.17;;;1.83;;
12155;SDS011;6141;49.092;8.516;2022-10-14T17:43:52;3.47;;;2.03;;
12155;SDS011;6141;49.092;8.516;2022-10-14T17:47:24;2.37;;;1.70;;
12155;SDS011;6141;49.092;8.516;2022-10-14T17:50:12;3.20;;;2.33;;
12155;SDS011;6141;49.092;8.516;2022-10-14T17:53:05;6.57;;;2.10;;
12155;SDS011;6141;49.092;8.516;2022-10-14T17:55:37;5.00;;;1.80;;
12155;SDS011;6141;49.092;8.516;2022-10-14T17:58:09;4.67;;;1.73;;
12155;SDS011;6141;49.092;8.516;2022-10-14T18:00:37;3.93;;;2.30;;
12155;SDS011;6141;49.092;8.516;2022-10-14T18:03:07;4.57;;;2.37;;
12155;SDS011;6141;49.092;8.516;2022-10-14T18:05:36;3.43;;;2.20;;
12155;SDS011;6141;49.092;8.516;2022-10-14T18:11:35;2.87;;;1.80;;
12155;SDS011;6141;49.092;8.516;2022-10-14T18:15:17;5.40;;;2.67;;
12155;SDS011;6141;49.092;8.516;2022-10-14T18:17:58;32.07;;;28.63;;
12155;SDS011;6141;49.092;8.516;2022-10-14T18:20:31;44.00;;;38.83;;
12155;SDS011;6141;49.092;8.516;2022-10-14T18:23:16;18.53;;;15.30;;
12155;SDS011;6141;49.092;8.516;2022-10-14T18:26:03;2.97;;;2.67;;
12155;SDS011;6141;49.092;8.516;2022-10-14T18:28:43;2.17;;;1.70;;
12155;SDS011;6141;49.092;8.516;2022-10-14T18:31:37;6.00;;;1.77;;
12155;SDS011;6141;49.092;8.516;2022-10-14T18:36:31;3.73;;;1.60;;
12155;SDS011;6141;49.092;8.516;2022-10-14T18:41:04;3.50;;;1.40;;
12155;SDS011;6141;49.092;8.516;2022-10-14T18:52:29;4.63;;;1.53;;
12155;SDS011;6141;49.092;8.516;2022-10-14T18:55:56;2.97;;;1.67;;
12155;SDS011;6141;49.092;8.516;2022-10-14T18:59:15;9.47;;;1.80;;
12155;SDS011;6141;49.092;8.516;2022-10-14T19:09:27;5.67;;;1.60;;
12155;SDS011;6141;49.092;8.516;2022-10-14T19:12:06;3.70;;;1.67;;
12155;SDS011;6141;49.092;8.516;2022-10-14T19:16:12;3.17;;;1.70;;
12155;SDS011;6141;49.092;8.516;2022-10-14T19:19:38;8.37;;;2.00;;
12155;SDS011;6141;49.092;8.516;2022-10-14T19:22:07;3.03;;;1.80;;
12155;SDS011;6141;49.092;8.516;2022-10-14T19:24:54;5.13;;;1.87;;
12155;SDS011;6141;49.092;8.516;2022-10-14T19:27:24;3.40;;;2.10;;
12155;SDS011;6141;49.092;8.516;2022-10-14T19:29:55;4.43;;;2.03;;
12155;SDS011;6141;49.092;8.516;2022-10-14T19:32:31;6.57;;;1.97;;
12155;SDS011;6141;49.092;8.516;2022-10-14T19:35:38;3.63;;;1.90;;
12155;SDS011;6141;49.092;8.516;2022-10-14T19:38:08;5.10;;;1.70;;
12155;SDS011;6141;49.092;8.516;2022-10-14T19:40:54;3.67;;;1.80;;
12155;SDS011;6141;49.092;8.516;2022-10-14T19:50:22;5.97;;;1.70;;
12155;SDS011;6141;49.092;8.516;2022-10-14T19:57:08;2.57;;;1.33;;
12155;SDS011;6141;49.092;8.516;2022-10-14T19:59:47;6.47;;;1.90;;
12155;SDS011;6141;49.092;8.516;2022-10-14T20:07:16;3.83;;;1.30;;
12155;SDS011;6141;49.092;8.516;2022-10-14T20:10:02;3.33;;;1.50;;
12155;SDS011;6141;49.092;8.516;2022-10-14T20:12:31;3.90;;;1.90;;
12155;SDS011;6141;49.092;8.516;2022-10-14T20:15:00;2.33;;;1.60;;
12155;SDS011;6141;49.092;8.516;2022-10-14T20:17:29;4.77;;;1.50;;
12155;SDS011;6141;49.092;8.516;2022-10-14T20:20:01;5.43;;;1.77;;
12155;SDS011;6141;49.092;8.516;2022-10-14T20:22:32;5.40;;;1.50;;
12155;SDS011;6141;49.092;8.516;2022-10-14T20:25:06;3.30;;;1.27;;
12155;SDS011;6141;49.092;8.516;2022-10-14T20:27:39;3.37;;;1.50;;
12155;SDS011;6141;49.092;8.516;2022-10-14T20:30:09;2.97;;;1.20;;
12155;SDS011;6141;49.092;8.516;2022-10-14T20:32:38;3.70;;;1.77;;
12155;SDS011;6141;49.092;8.516;2022-10-14T20:35:07;5.63;;;1.70;;
12155;SDS011;6141;49.092;8.516;2022-10-14T20:37:42;6.27;;;1.60;;
12155;SDS011;6141;49.092;8.516;2022-10-14T20:40:12;3.90;;;1.60;;
12155;SDS011;6141;49.092;8.516;2022-10-14T20:42:41;2.00;;;1.50;;
12155;SDS011;6141;49.092;8.516;2022-10-14T20:45:12;3.43;;;1.43;;
12155;SDS011;6141;49.092;8.516;2022-10-14T20:47:52;2.00;;;1.50;;
12155;SDS011;6141;49.092;8.516;2022-10-14T20:50:21;2.33;;;1.20;;
12155;SDS011;6141;49.092;8.516;2022-10-14T20:53:09;2.53;;;1.40;;
12155;SDS011;6141;49.092;8.516;2022-10-14T20:55:49;3.80;;;1.73;;
12155;SDS011;6141;49.092;8.516;2022-10-14T20:58:34;5.17;;;1.40;;
12155;SDS011;6141;49.092;8.516;2022-10-14T21:01:58;3.40;;;1.50;;
12155;SDS011;6141;49.092;8.516;2022-10-14T21:04:27;3.40;;;1.60;;
12155;SDS011;6141;49.092;8.516;2022-10-14T21:08:03;3.70;;;1.77;;
12155;SDS011;6141;49.092;8.516;2022-10-14T21:10:32;5.07;;;1.97;;
12155;SDS011;6141;49.092;8.516;2022-10-14T21:13:24;3.23;;;1.40;;
12155;SDS011;6141;49.092;8.516;2022-10-14T21:25:30;3.57;;;1.50;;
12155;SDS011;6141;49.092;8.516;2022-10-14T21:28:00;3.27;;;1.60;;
12155;SDS011;6141;49.092;8.516;2022-10-14T21:30:33;4.83;;;1.43;;
12155;SDS011;6141;49.092;8.516;2022-10-14T21:33:14;3.07;;;1.67;;
12155;SDS011;6141;49.092;8.516;2022-10-14T21:39:14;4.47;;;1.50;;
12155;SDS011;6141;49.092;8.516;2022-10-14T21:42:32;1.63;;;1.30;;
12155;SDS011;6141;49.092;8.516;2022-10-14T21:45:15;3.83;;;1.47;;
12155;SDS011;6141;49.092;8.516;2022-10-14T21:48:10;5.77;;;1.70;;
12155;SDS011;6141;49.092;8.516;2022-10-14T21:51:10;3.13;;;1.20;;
12155;SDS011;6141;49.092;8.516;2022-10-14T21:53:43;1.97;;;1.10;;
12155;SDS011;6141;49.092;8.516;2022-10-14T21:56:19;4.87;;;1.50;;
12155;SDS011;6141;49.092;8.516;2022-10-14T21:59:09;3.33;;;1.40;;
12155;SDS011;6141;49.092;8.516;2022-10-14T22:02:50;2.13;;;1.30;;
12155;SDS011;6141;49.092;8.516;2022-10-14T22:06:38;2.43;;;1.20;;
12155;SDS011;6141;49.092;8.516;2022-10-14T22:09:06;3.03;;;1.23;;
12155;SDS011;6141;49.092;8.516;2022-10-14T22:11:36;2.33;;;1.27;;
12155;SDS011;6141;49.092;8.516;2022-10-14T22:14:09;4.50;;;1.43;;
12155;SDS011;6141;49.092;8.516;2022-10-14T22:16:39;1.73;;;1.27;;
12155;SDS011;6141;49.092;8.516;2022-10-14T22:19:08;2.67;;;1.47;;
12155;SDS011;6141;49.092;8.516;2022-10-14T22:21:50;2.30;;;1.40;;
12155;SDS011;6141;49.092;8.516;2022-10-14T22:24:18;1.40;;;1.10;;
12155;SDS011;6141;49.092;8.516;2022-10-14T22:26:49;3.10;;;1.40;;
12155;SDS011;6141;49.092;8.516;2022-10-14T22:29:21;2.07;;;1.30;;
12155;SDS011;6141;49.092;8.516;2022-10-14T22:31:56;3.63;;;1.30;;
12155;SDS011;6141;49.092;8.516;2022-10-14T22:34:32;1.70;;;1.30;;
12155;SDS011;6141;49.092;8.516;2022-10-14T22:37:00;3.73;;;1.30;;
12155;SDS011;6141;49.092;8.516;2022-10-14T22:39:29;3.30;;;1.50;;
12155;SDS011;6141;49.092;8.516;2022-10-14T22:42:03;2.60;;;1.33;;
12155;SDS011;6141;49.092;8.516;2022-10-14T22:44:46;1.73;;;1.40;;
12155;SDS011;6141;49.092;8.516;2022-10-14T22:47:54;2.57;;;1.30;;
12155;SDS011;6141;49.092;8.516;2022-10-14T22:50:47;1.93;;;1.40;;
12155;SDS011;6141;49.092;8.516;2022-10-14T22:53:18;1.60;;;1.20;;
12155;SDS011;6141;49.092;8.516;2022-10-14T22:55:50;1.50;;;1.20;;
12155;SDS011;6141;49.092;8.516;2022-10-14T22:59:05;3.83;;;1.20;;
12155;SDS011;6141;49.092;8.516;2022-10-14T23:05:35;1.13;;;0.93;;
12155;SDS011;6141;49.092;8.516;2022-10-14T23:08:20;1.70;;;1.00;;
12155;SDS011;6141;49.092;8.516;2022-10-14T23:11:29;1.00;;;0.90;;
12155;SDS011;6141;49.092;8.516;2022-10-14T23:14:03;1.13;;;0.70;;
12155;SDS011;6141;49.092;8.516;2022-10-14T23:16:33;1.40;;;0.80;;
12155;SDS011;6141;49.092;8.516;2022-10-14T23:19:04;2.43;;;0.77;;
12155;SDS011;6141;49.092;8.516;2022-10-14T23:21:33;4.00;;;0.70;;
12155;SDS011;6141;49.092;8.516;2022-10-14T23:24:04;1.10;;;0.70;;
12155;SDS011;6141;49.092;8.516;2022-10-14T23:26:52;1.10;;;0.70;;
12155;SDS011;6141;49.092;8.516;2022-10-14T23:29:56;2.03;;;0.50;;
12155;SDS011;6141;49.092;8.516;2022-10-14T23:32:32;1.73;;;0.63;;
12155;SDS011;6141;49.092;8.516;2022-10-14T23:35:09;3.03;;;0.70;;
12155;SDS011;6141;49.092;8.516;2022-10-14T23:48:41;1.00;;;0.60;;
12155;SDS011;6141;49.092;8.516;2022-10-14T23:58:56;1.00;;;0.60;;
